sensor_id;sensor_type;location;lat;lon;timestamp;temperature;humidity
25937;DHT22;13733;51.178;4.450;2022-09-29T00:01:30;9.10;99.90
25937;DHT22;13733;51.178;4.450;2022-09-29T00:03:55;9.00;99.90
25937;DHT22;13733;51.178;4.450;2022-09-29T00:06:22;9.00;99.90
25937;DHT22;13733;51.178;4.450;2022-09-29T00:08:47;9.00;99.90
25937;DHT22;13733;51.178;4.450;2022-09-29T00:11:15;9.00;99.90
25937;DHT22;13733;51.178;4.450;2022-09-29T00:13:41;9.00;99.90
25937;DHT22;13733;51.178;4.450;2022-09-29T00:16:06;9.00;99.90
25937;DHT22;13733;51.178;4.450;2022-09-29T00:18:33;9.00;99.90
25937;DHT22;13733;51.178;4.450;2022-09-29T00:21:03;9.00;99.90
25937;DHT22;13733;51.178;4.450;2022-09-29T00:23:29;8.90;99.90
25937;DHT22;13733;51.178;4.450;2022-09-29T00:26:05;8.90;99.90
25937;DHT22;13733;51.178;4.450;2022-09-29T00:28:31;8.80;99.90
25937;DHT22;13733;51.178;4.450;2022-09-29T00:30:58;8.80;99.90
25937;DHT22;13733;51.178;4.450;2022-09-29T00:33:24;8.80;99.90
25937;DHT22;13733;51.178;4.450;2022-09-29T00:35:57;8.80;99.90
25937;DHT22;13733;51.178;4.450;2022-09-29T00:38:23;8.70;99.90
25937;DHT22;13733;51.178;4.450;2022-09-29T00:40:49;8.70;99.90
25937;DHT22;13733;51.178;4.450;2022-09-29T00:43:18;8.70;99.90
25937;DHT22;13733;51.178;4.450;2022-09-29T00:45:44;8.60;99.90
25937;DHT22;13733;51.178;4.450;2022-09-29T00:48:12;8.60;99.90
25937;DHT22;13733;51.178;4.450;2022-09-29T00:50:46;8.50;99.90
25937;DHT22;13733;51.178;4.450;2022-09-29T00:53:13;8.50;99.90
25937;DHT22;13733;51.178;4.450;2022-09-29T00:55:57;8.50;99.90
25937;DHT22;13733;51.178;4.450;2022-09-29T01:00:53;8.40;99.90
25937;DHT22;13733;51.178;4.450;2022-09-29T01:03:20;8.40;99.90
25937;DHT22;13733;51.178;4.450;2022-09-29T01:06:09;8.30;99.90
25937;DHT22;13733;51.178;4.450;2022-09-29T01:08:38;8.40;99.90
25937;DHT22;13733;51.178;4.450;2022-09-29T01:11:06;8.40;99.90
25937;DHT22;13733;51.178;4.450;2022-09-29T01:13:32;8.40;99.90
25937;DHT22;13733;51.178;4.450;2022-09-29T01:15:58;8.30;99.90
25937;DHT22;13733;51.178;4.450;2022-09-29T01:18:24;8.30;99.90
25937;DHT22;13733;51.178;4.450;2022-09-29T01:28:32;8.30;99.90
25937;DHT22;13733;51.178;4.450;2022-09-29T01:33:42;8.20;99.90
25937;DHT22;13733;51.178;4.450;2022-09-29T01:44:15;8.20;99.90
25937;DHT22;13733;51.178;4.450;2022-09-29T01:49:14;8.20;99.90
25937;DHT22;13733;51.178;4.450;2022-09-29T01:51:46;8.10;99.90
25937;DHT22;13733;51.178;4.450;2022-09-29T01:54:16;8.10;99.90
25937;DHT22;13733;51.178;4.450;2022-09-29T01:57:00;8.10;99.90
25937;DHT22;13733;51.178;4.450;2022-09-29T01:59:37;8.00;99.90
25937;DHT22;13733;51.178;4.450;2022-09-29T02:02:10;8.10;99.90
25937;DHT22;13733;51.178;4.450;2022-09-29T02:04:40;8.00;99.90
25937;DHT22;13733;51.178;4.450;2022-09-29T02:07:09;8.00;99.90
25937;DHT22;13733;51.178;4.450;2022-09-29T02:09:38;8.00;99.90
25937;DHT22;13733;51.178;4.450;2022-09-29T02:12:06;8.00;99.90
25937;DHT22;13733;51.178;4.450;2022-09-29T02:14:35;8.00;99.90
25937;DHT22;13733;51.178;4.450;2022-09-29T02:17:07;8.00;99.90
25937;DHT22;13733;51.178;4.450;2022-09-29T02:19:37;8.00;99.90
25937;DHT22;13733;51.178;4.450;2022-09-29T02:22:03;7.90;99.90
25937;DHT22;13733;51.178;4.450;2022-09-29T02:24:29;7.90;99.90
25937;DHT22;13733;51.178;4.450;2022-09-29T02:26:55;7.90;99.90
25937;DHT22;13733;51.178;4.450;2022-09-29T02:29:20;8.00;99.90
25937;DHT22;13733;51.178;4.450;2022-09-29T02:31:46;7.90;99.90
25937;DHT22;13733;51.178;4.450;2022-09-29T02:34:13;7.90;99.90
25937;DHT22;13733;51.178;4.450;2022-09-29T02:42:12;7.90;99.90
25937;DHT22;13733;51.178;4.450;2022-09-29T02:55:17;8.00;99.90
25937;DHT22;13733;51.178;4.450;2022-09-29T02:58:19;8.00;99.90
25937;DHT22;13733;51.178;4.450;2022-09-29T03:00:37;7.90;99.90
25937;DHT22;13733;51.178;4.450;2022-09-29T03:03:02;7.90;99.90
25937;DHT22;13733;51.178;4.450;2022-09-29T03:05:28;7.90;99.90
25937;DHT22;13733;51.178;4.450;2022-09-29T03:07:54;7.80;99.90
25937;DHT22;13733;51.178;4.450;2022-09-29T03:10:19;7.80;99.90
25937;DHT22;13733;51.178;4.450;2022-09-29T03:12:45;7.80;99.90
25937;DHT22;13733;51.178;4.450;2022-09-29T03:15:14;7.70;99.90
25937;DHT22;13733;51.178;4.450;2022-09-29T03:17:39;7.70;99.90
25937;DHT22;13733;51.178;4.450;2022-09-29T03:20:05;7.70;99.90
25937;DHT22;13733;51.178;4.450;2022-09-29T03:22:31;7.70;99.90
25937;DHT22;13733;51.178;4.450;2022-09-29T03:24:57;7.60;99.90
25937;DHT22;13733;51.178;4.450;2022-09-29T03:27:23;7.60;99.90
25937;DHT22;13733;51.178;4.450;2022-09-29T03:29:49;7.70;99.90
25937;DHT22;13733;51.178;4.450;2022-09-29T03:32:15;7.70;99.90
25937;DHT22;13733;51.178;4.450;2022-09-29T03:34:42;7.60;99.90
25937;DHT22;13733;51.178;4.450;2022-09-29T03:37:08;7.60;99.90
25937;DHT22;13733;51.178;4.450;2022-09-29T03:39:33;7.60;99.90
25937;DHT22;13733;51.178;4.450;2022-09-29T03:41:59;7.60;99.90
25937;DHT22;13733;51.178;4.450;2022-09-29T03:44:25;7.60;99.90
25937;DHT22;13733;51.178;4.450;2022-09-29T03:46:52;7.60;99.90
25937;DHT22;13733;51.178;4.450;2022-09-29T03:49:17;7.60;99.90
25937;DHT22;13733;51.178;4.450;2022-09-29T03:51:43;7.60;99.90
25937;DHT22;13733;51.178;4.450;2022-09-29T03:54:09;7.50;99.90
25937;DHT22;13733;51.178;4.450;2022-09-29T03:56:35;7.50;99.90
25937;DHT22;13733;51.178;4.450;2022-09-29T03:59:02;7.60;99.90
25937;DHT22;13733;51.178;4.450;2022-09-29T04:01:30;7.60;99.90
25937;DHT22;13733;51.178;4.450;2022-09-29T04:03:56;7.60;99.90
25937;DHT22;13733;51.178;4.450;2022-09-29T04:06:21;7.70;99.90
25937;DHT22;13733;51.178;4.450;2022-09-29T04:08:47;7.70;99.90
25937;DHT22;13733;51.178;4.450;2022-09-29T04:11:13;7.60;99.90
25937;DHT22;13733;51.178;4.450;2022-09-29T04:13:40;7.60;99.90
25937;DHT22;13733;51.178;4.450;2022-09-29T04:16:06;7.70;99.90
25937;DHT22;13733;51.178;4.450;2022-09-29T04:18:32;7.70;99.90
25937;DHT22;13733;51.178;4.450;2022-09-29T04:20:57;7.70;99.90
25937;DHT22;13733;51.178;4.450;2022-09-29T04:23:25;7.60;99.90
25937;DHT22;13733;51.178;4.450;2022-09-29T04:25:51;7.60;99.90
25937;DHT22;13733;51.178;4.450;2022-09-29T04:28:16;7.60;99.90
25937;DHT22;13733;51.178;4.450;2022-09-29T04:30:42;7.60;99.90
25937;DHT22;13733;51.178;4.450;2022-09-29T04:33:07;7.50;99.90
25937;DHT22;13733;51.178;4.450;2022-09-29T04:35:34;7.50;99.90
25937;DHT22;13733;51.178;4.450;2022-09-29T04:37:59;7.40;99.90
25937;DHT22;13733;51.178;4.450;2022-09-29T04:40:25;7.50;99.90
25937;DHT22;13733;51.178;4.450;2022-09-29T04:42:50;7.40;99.90
25937;DHT22;13733;51.178;4.450;2022-09-29T04:45:17;7.30;99.90
25937;DHT22;13733;51.178;4.450;2022-09-29T04:47:43;7.30;99.90
25937;DHT22;13733;51.178;4.450;2022-09-29T04:50:08;7.30;99.90
25937;DHT22;13733;51.178;4.450;2022-09-29T04:52:34;7.30;99.90
25937;DHT22;13733;51.178;4.450;2022-09-29T04:55:00;7.30;99.90
25937;DHT22;13733;51.178;4.450;2022-09-29T04:57:27;7.30;99.90
25937;DHT22;13733;51.178;4.450;2022-09-29T04:59:53;7.30;99.90
25937;DHT22;13733;51.178;4.450;2022-09-29T05:02:18;7.30;99.90
25937;DHT22;13733;51.178;4.450;2022-09-29T05:04:44;7.20;99.90
25937;DHT22;13733;51.178;4.450;2022-09-29T05:07:12;7.30;99.90
25937;DHT22;13733;51.178;4.450;2022-09-29T05:09:38;7.20;99.90
25937;DHT22;13733;51.178;4.450;2022-09-29T05:12:04;7.20;99.90
25937;DHT22;13733;51.178;4.450;2022-09-29T05:14:29;7.20;99.90
25937;DHT22;13733;51.178;4.450;2022-09-29T05:16:55;7.20;99.90
25937;DHT22;13733;51.178;4.450;2022-09-29T05:19:21;7.20;99.90
25937;DHT22;13733;51.178;4.450;2022-09-29T05:21:47;7.30;99.90
25937;DHT22;13733;51.178;4.450;2022-09-29T05:24:13;7.30;99.90
25937;DHT22;13733;51.178;4.450;2022-09-29T05:26:41;7.30;99.90
25937;DHT22;13733;51.178;4.450;2022-09-29T05:29:06;7.40;99.90
25937;DHT22;13733;51.178;4.450;2022-09-29T05:31:32;7.40;99.90
25937;DHT22;13733;51.178;4.450;2022-09-29T05:33:58;7.40;99.90
25937;DHT22;13733;51.178;4.450;2022-09-29T05:36:23;7.40;99.90
25937;DHT22;13733;51.178;4.450;2022-09-29T05:39:25;7.50;99.90
25937;DHT22;13733;51.178;4.450;2022-09-29T05:41:52;7.50;99.90
25937;DHT22;13733;51.178;4.450;2022-09-29T05:44:18;7.60;99.90
25937;DHT22;13733;51.178;4.450;2022-09-29T05:46:43;7.50;99.90
25937;DHT22;13733;51.178;4.450;2022-09-29T05:49:09;7.40;99.90
25937;DHT22;13733;51.178;4.450;2022-09-29T05:51:35;7.30;99.90
25937;DHT22;13733;51.178;4.450;2022-09-29T05:54:01;7.30;99.90
25937;DHT22;13733;51.178;4.450;2022-09-29T05:56:27;7.30;99.90
25937;DHT22;13733;51.178;4.450;2022-09-29T05:58:53;7.40;99.90
25937;DHT22;13733;51.178;4.450;2022-09-29T06:01:24;7.40;99.90
25937;DHT22;13733;51.178;4.450;2022-09-29T06:03:53;7.50;99.90
25937;DHT22;13733;51.178;4.450;2022-09-29T06:06:21;7.60;99.90
25937;DHT22;13733;51.178;4.450;2022-09-29T06:08:48;7.60;99.90
25937;DHT22;13733;51.178;4.450;2022-09-29T06:11:19;7.60;99.90
25937;DHT22;13733;51.178;4.450;2022-09-29T06:13:47;7.50;99.90
25937;DHT22;13733;51.178;4.450;2022-09-29T06:16:15;7.60;99.90
25937;DHT22;13733;51.178;4.450;2022-09-29T06:18:41;7.60;99.90
25937;DHT22;13733;51.178;4.450;2022-09-29T06:21:12;7.60;99.90
25937;DHT22;13733;51.178;4.450;2022-09-29T06:23:40;7.70;99.90
25937;DHT22;13733;51.178;4.450;2022-09-29T06:26:11;7.70;99.90
25937;DHT22;13733;51.178;4.450;2022-09-29T06:28:37;7.80;99.90
25937;DHT22;13733;51.178;4.450;2022-09-29T06:31:10;7.80;99.90
25937;DHT22;13733;51.178;4.450;2022-09-29T06:33:37;7.90;99.90
25937;DHT22;13733;51.178;4.450;2022-09-29T06:39:11;7.90;99.90
25937;DHT22;13733;51.178;4.450;2022-09-29T06:41:38;7.90;99.90
25937;DHT22;13733;51.178;4.450;2022-09-29T06:44:07;8.00;99.90
25937;DHT22;13733;51.178;4.450;2022-09-29T06:46:33;8.20;99.90
25937;DHT22;13733;51.178;4.450;2022-09-29T06:49:00;8.10;99.90
25937;DHT22;13733;51.178;4.450;2022-09-29T06:51:26;8.00;99.90
25937;DHT22;13733;51.178;4.450;2022-09-29T06:53:53;8.10;99.90
25937;DHT22;13733;51.178;4.450;2022-09-29T06:56:19;8.10;99.90
25937;DHT22;13733;51.178;4.450;2022-09-29T06:58:45;8.00;99.90
25937;DHT22;13733;51.178;4.450;2022-09-29T07:01:11;8.00;99.90
25937;DHT22;13733;51.178;4.450;2022-09-29T07:03:38;8.10;99.90
25937;DHT22;13733;51.178;4.450;2022-09-29T07:06:05;8.10;99.90
25937;DHT22;13733;51.178;4.450;2022-09-29T07:08:31;8.10;99.90
25937;DHT22;13733;51.178;4.450;2022-09-29T07:10:59;8.10;99.90
25937;DHT22;13733;51.178;4.450;2022-09-29T07:13:25;8.20;99.90
25937;DHT22;13733;51.178;4.450;2022-09-29T07:15:51;8.40;99.90
25937;DHT22;13733;51.178;4.450;2022-09-29T07:18:20;8.60;99.90
25937;DHT22;13733;51.178;4.450;2022-09-29T07:20:46;8.70;99.90
25937;DHT22;13733;51.178;4.450;2022-09-29T07:23:13;8.80;99.90
25937;DHT22;13733;51.178;4.450;2022-09-29T07:25:39;8.90;99.90
25937;DHT22;13733;51.178;4.450;2022-09-29T07:28:05;8.90;99.90
25937;DHT22;13733;51.178;4.450;2022-09-29T07:30:30;8.90;99.90
25937;DHT22;13733;51.178;4.450;2022-09-29T07:32:56;9.00;99.90
25937;DHT22;13733;51.178;4.450;2022-09-29T07:35:23;9.10;99.90
25937;DHT22;13733;51.178;4.450;2022-09-29T07:37:53;9.30;99.90
25937;DHT22;13733;51.178;4.450;2022-09-29T07:40:22;9.50;99.90
25937;DHT22;13733;51.178;4.450;2022-09-29T07:42:49;9.60;99.90
25937;DHT22;13733;51.178;4.450;2022-09-29T07:45:16;9.70;99.90
25937;DHT22;13733;51.178;4.450;2022-09-29T07:47:42;9.60;99.90
25937;DHT22;13733;51.178;4.450;2022-09-29T07:50:08;9.90;99.90
25937;DHT22;13733;51.178;4.450;2022-09-29T07:52:35;10.00;99.90
25937;DHT22;13733;51.178;4.450;2022-09-29T07:55:01;10.00;99.90
25937;DHT22;13733;51.178;4.450;2022-09-29T07:57:27;10.10;99.90
25937;DHT22;13733;51.178;4.450;2022-09-29T07:59:53;10.10;99.90
25937;DHT22;13733;51.178;4.450;2022-09-29T08:02:20;10.30;99.90
25937;DHT22;13733;51.178;4.450;2022-09-29T08:04:46;10.60;99.90
25937;DHT22;13733;51.178;4.450;2022-09-29T08:07:11;10.80;99.90
25937;DHT22;13733;51.178;4.450;2022-09-29T08:09:37;10.80;99.90
25937;DHT22;13733;51.178;4.450;2022-09-29T08:12:03;10.90;99.90
25937;DHT22;13733;51.178;4.450;2022-09-29T08:14:28;11.00;99.90
25937;DHT22;13733;51.178;4.450;2022-09-29T08:16:54;11.10;99.90
25937;DHT22;13733;51.178;4.450;2022-09-29T08:19:20;11.20;99.90
25937;DHT22;13733;51.178;4.450;2022-09-29T08:21:46;11.50;99.90
25937;DHT22;13733;51.178;4.450;2022-09-29T08:24:15;11.50;99.90
25937;DHT22;13733;51.178;4.450;2022-09-29T08:26:42;11.50;99.90
25937;DHT22;13733;51.178;4.450;2022-09-29T08:29:08;11.50;99.90
25937;DHT22;13733;51.178;4.450;2022-09-29T08:31:35;11.60;99.90
25937;DHT22;13733;51.178;4.450;2022-09-29T08:34:03;11.80;99.90
25937;DHT22;13733;51.178;4.450;2022-09-29T08:36:28;11.90;99.90
25937;DHT22;13733;51.178;4.450;2022-09-29T08:38:55;12.00;99.90
25937;DHT22;13733;51.178;4.450;2022-09-29T08:44:48;12.00;99.90
25937;DHT22;13733;51.178;4.450;2022-09-29T08:47:20;12.00;99.90
25937;DHT22;13733;51.178;4.450;2022-09-29T08:49:58;12.20;99.90
25937;DHT22;13733;51.178;4.450;2022-09-29T08:52:30;12.30;99.90
25937;DHT22;13733;51.178;4.450;2022-09-29T08:55:12;12.40;99.90
25937;DHT22;13733;51.178;4.450;2022-09-29T08:57:47;12.40;99.90
25937;DHT22;13733;51.178;4.450;2022-09-29T09:00:18;12.70;99.90
25937;DHT22;13733;51.178;4.450;2022-09-29T09:11:04;13.10;99.90
25937;DHT22;13733;51.178;4.450;2022-09-29T09:13:56;13.20;99.90
25937;DHT22;13733;51.178;4.450;2022-09-29T09:17:02;13.10;99.90
25937;DHT22;13733;51.178;4.450;2022-09-29T09:19:53;13.30;99.90
25937;DHT22;13733;51.178;4.450;2022-09-29T09:22:22;13.50;99.90
25937;DHT22;13733;51.178;4.450;2022-09-29T09:27:34;13.40;99.90
25937;DHT22;13733;51.178;4.450;2022-09-29T09:30:11;13.50;99.90
25937;DHT22;13733;51.178;4.450;2022-09-29T09:33:09;13.70;99.90
25937;DHT22;13733;51.178;4.450;2022-09-29T09:35:44;13.90;99.90
25937;DHT22;13733;51.178;4.450;2022-09-29T09:38:22;14.10;99.90
25937;DHT22;13733;51.178;4.450;2022-09-29T09:40:53;14.30;99.90
25937;DHT22;13733;51.178;4.450;2022-09-29T09:43:42;14.30;99.90
25937;DHT22;13733;51.178;4.450;2022-09-29T09:49:29;14.50;99.90
25937;DHT22;13733;51.178;4.450;2022-09-29T09:52:03;14.50;99.90
25937;DHT22;13733;51.178;4.450;2022-09-29T09:54:36;14.70;99.90
25937;DHT22;13733;51.178;4.450;2022-09-29T10:02:26;14.50;99.90
25937;DHT22;13733;51.178;4.450;2022-09-29T10:04:54;14.60;99.90
25937;DHT22;13733;51.178;4.450;2022-09-29T10:07:24;14.90;99.90
25937;DHT22;13733;51.178;4.450;2022-09-29T10:09:50;15.30;99.90
25937;DHT22;13733;51.178;4.450;2022-09-29T10:12:18;15.60;99.90
25937;DHT22;13733;51.178;4.450;2022-09-29T10:14:52;16.00;99.90
25937;DHT22;13733;51.178;4.450;2022-09-29T10:17:24;16.30;99.90
25937;DHT22;13733;51.178;4.450;2022-09-29T10:20:05;16.70;99.90
25937;DHT22;13733;51.178;4.450;2022-09-29T10:22:32;17.10;99.90
25937;DHT22;13733;51.178;4.450;2022-09-29T10:27:41;18.40;99.90
25937;DHT22;13733;51.178;4.450;2022-09-29T10:30:22;19.00;99.90
25937;DHT22;13733;51.178;4.450;2022-09-29T10:32:52;19.60;99.90
25937;DHT22;13733;51.178;4.450;2022-09-29T10:35:26;20.00;99.90
25937;DHT22;13733;51.178;4.450;2022-09-29T10:38:04;20.20;99.60
25937;DHT22;13733;51.178;4.450;2022-09-29T10:40:30;19.90;98.80
25937;DHT22;13733;51.178;4.450;2022-09-29T10:42:57;19.80;99.90
25937;DHT22;13733;51.178;4.450;2022-09-29T10:45:27;19.80;99.90
25937;DHT22;13733;51.178;4.450;2022-09-29T10:50:25;19.80;99.80
25937;DHT22;13733;51.178;4.450;2022-09-29T10:52:53;19.90;97.90
25937;DHT22;13733;51.178;4.450;2022-09-29T10:55:32;19.70;97.60
25937;DHT22;13733;51.178;4.450;2022-09-29T10:58:32;19.40;98.20
25937;DHT22;13733;51.178;4.450;2022-09-29T11:01:17;19.00;99.50
25937;DHT22;13733;51.178;4.450;2022-09-29T11:03:50;18.70;99.90
25937;DHT22;13733;51.178;4.450;2022-09-29T11:06:25;18.30;99.90
25937;DHT22;13733;51.178;4.450;2022-09-29T11:09:26;17.90;99.90
25937;DHT22;13733;51.178;4.450;2022-09-29T11:11:54;17.70;99.90
25937;DHT22;13733;51.178;4.450;2022-09-29T11:14:30;17.70;99.90
25937;DHT22;13733;51.178;4.450;2022-09-29T11:16:58;17.70;99.90
25937;DHT22;13733;51.178;4.450;2022-09-29T11:19:25;17.70;99.90
25937;DHT22;13733;51.178;4.450;2022-09-29T11:24:46;17.60;99.90
25937;DHT22;13733;51.178;4.450;2022-09-29T11:30:13;17.60;99.90
25937;DHT22;13733;51.178;4.450;2022-09-29T11:33:17;17.60;99.90
25937;DHT22;13733;51.178;4.450;2022-09-29T11:48:43;18.50;99.90
25937;DHT22;13733;51.178;4.450;2022-09-29T11:54:22;19.10;99.90
25937;DHT22;13733;51.178;4.450;2022-09-29T11:57:06;19.30;99.90
25937;DHT22;13733;51.178;4.450;2022-09-29T12:08:28;21.70;95.70
25937;DHT22;13733;51.178;4.450;2022-09-29T12:16:35;21.50;91.40
25937;DHT22;13733;51.178;4.450;2022-09-29T12:19:14;20.70;93.30
25937;DHT22;13733;51.178;4.450;2022-09-29T12:21:47;20.20;93.70
25937;DHT22;13733;51.178;4.450;2022-09-29T12:25:09;20.00;93.80
25937;DHT22;13733;51.178;4.450;2022-09-29T12:27:27;19.50;95.20
25937;DHT22;13733;51.178;4.450;2022-09-29T12:32:45;19.10;97.20
25937;DHT22;13733;51.178;4.450;2022-09-29T12:35:30;19.00;98.20
25937;DHT22;13733;51.178;4.450;2022-09-29T12:38:11;19.00;97.30
25937;DHT22;13733;51.178;4.450;2022-09-29T12:41:13;19.00;97.70
25937;DHT22;13733;51.178;4.450;2022-09-29T12:46:50;19.40;96.60
25937;DHT22;13733;51.178;4.450;2022-09-29T12:49:32;19.60;97.30
25937;DHT22;13733;51.178;4.450;2022-09-29T12:52:00;20.00;97.40
25937;DHT22;13733;51.178;4.450;2022-09-29T12:54:42;20.10;96.30
25937;DHT22;13733;51.178;4.450;2022-09-29T12:57:14;20.40;94.00
25937;DHT22;13733;51.178;4.450;2022-09-29T13:00:04;20.50;95.30
25937;DHT22;13733;51.178;4.450;2022-09-29T13:05:52;20.90;94.90
25937;DHT22;13733;51.178;4.450;2022-09-29T13:14:37;22.40;88.30
25937;DHT22;13733;51.178;4.450;2022-09-29T13:22:24;20.80;92.00
25937;DHT22;13733;51.178;4.450;2022-09-29T13:25:24;20.10;93.60
25937;DHT22;13733;51.178;4.450;2022-09-29T13:27:54;19.50;96.00
25937;DHT22;13733;51.178;4.450;2022-09-29T13:30:33;19.40;95.20
25937;DHT22;13733;51.178;4.450;2022-09-29T13:33:07;19.40;96.00
25937;DHT22;13733;51.178;4.450;2022-09-29T13:35:39;19.40;97.10
25937;DHT22;13733;51.178;4.450;2022-09-29T13:38:12;19.50;98.40
25937;DHT22;13733;51.178;4.450;2022-09-29T13:51:57;21.30;94.50
25937;DHT22;13733;51.178;4.450;2022-09-29T13:54:30;23.20;85.20
25937;DHT22;13733;51.178;4.450;2022-09-29T13:59:59;25.60;63.20
25937;DHT22;13733;51.178;4.450;2022-09-29T14:02:41;25.30;60.70
25937;DHT22;13733;51.178;4.450;2022-09-29T14:10:37;29.10;46.90
25937;DHT22;13733;51.178;4.450;2022-09-29T14:15:35;27.30;46.40
25937;DHT22;13733;51.178;4.450;2022-09-29T14:18:30;26.20;47.70
25937;DHT22;13733;51.178;4.450;2022-09-29T14:21:01;25.20;49.90
25937;DHT22;13733;51.178;4.450;2022-09-29T14:26:44;23.90;56.40
25937;DHT22;13733;51.178;4.450;2022-09-29T14:29:21;24.00;55.60
25937;DHT22;13733;51.178;4.450;2022-09-29T14:31:51;23.80;57.30
25937;DHT22;13733;51.178;4.450;2022-09-29T14:34:18;24.90;56.20
25937;DHT22;13733;51.178;4.450;2022-09-29T14:36:47;26.70;52.10
25937;DHT22;13733;51.178;4.450;2022-09-29T14:39:14;28.50;47.40
25937;DHT22;13733;51.178;4.450;2022-09-29T14:41:45;29.30;43.60
25937;DHT22;13733;51.178;4.450;2022-09-29T14:44:22;28.40;43.30
25937;DHT22;13733;51.178;4.450;2022-09-29T14:47:30;27.10;44.80
25937;DHT22;13733;51.178;4.450;2022-09-29T14:50:30;25.40;47.90
25937;DHT22;13733;51.178;4.450;2022-09-29T14:53:32;23.70;52.40
25937;DHT22;13733;51.178;4.450;2022-09-29T15:01:31;21.70;62.70
25937;DHT22;13733;51.178;4.450;2022-09-29T15:04:14;21.10;68.00
25937;DHT22;13733;51.178;4.450;2022-09-29T15:06:49;20.70;70.40
25937;DHT22;13733;51.178;4.450;2022-09-29T15:09:23;20.20;74.10
25937;DHT22;13733;51.178;4.450;2022-09-29T15:11:51;20.20;75.90
25937;DHT22;13733;51.178;4.450;2022-09-29T15:19:45;22.80;69.00
25937;DHT22;13733;51.178;4.450;2022-09-29T15:25:25;22.20;66.00
25937;DHT22;13733;51.178;4.450;2022-09-29T15:28:15;21.30;72.10
25937;DHT22;13733;51.178;4.450;2022-09-29T15:30:42;20.70;75.90
25937;DHT22;13733;51.178;4.450;2022-09-29T15:33:27;20.30;78.20
25937;DHT22;13733;51.178;4.450;2022-09-29T15:36:00;19.80;82.60
25937;DHT22;13733;51.178;4.450;2022-09-29T15:38:30;19.50;88.00
25937;DHT22;13733;51.178;4.450;2022-09-29T15:41:04;19.10;91.60
25937;DHT22;13733;51.178;4.450;2022-09-29T15:43:42;18.90;93.70
25937;DHT22;13733;51.178;4.450;2022-09-29T15:46:21;18.50;96.80
25937;DHT22;13733;51.178;4.450;2022-09-29T15:49:09;18.20;99.80
25937;DHT22;13733;51.178;4.450;2022-09-29T15:51:35;18.10;99.90
25937;DHT22;13733;51.178;4.450;2022-09-29T15:54:02;18.00;99.90
25937;DHT22;13733;51.178;4.450;2022-09-29T15:56:36;17.80;99.90
25937;DHT22;13733;51.178;4.450;2022-09-29T15:59:44;17.80;99.90
25937;DHT22;13733;51.178;4.450;2022-09-29T16:02:42;17.60;99.90
25937;DHT22;13733;51.178;4.450;2022-09-29T16:05:12;17.50;99.90
25937;DHT22;13733;51.178;4.450;2022-09-29T16:07:47;17.20;99.90
25937;DHT22;13733;51.178;4.450;2022-09-29T16:10:18;17.10;99.90
25937;DHT22;13733;51.178;4.450;2022-09-29T16:12:48;17.00;99.90
25937;DHT22;13733;51.178;4.450;2022-09-29T16:15:29;16.80;99.90
25937;DHT22;13733;51.178;4.450;2022-09-29T16:17:58;16.80;99.90
25937;DHT22;13733;51.178;4.450;2022-09-29T16:20:33;16.80;99.90
25937;DHT22;13733;51.178;4.450;2022-09-29T16:23:23;16.70;99.90
25937;DHT22;13733;51.178;4.450;2022-09-29T16:28:37;16.30;99.90
25937;DHT22;13733;51.178;4.450;2022-09-29T16:31:16;16.30;99.90
25937;DHT22;13733;51.178;4.450;2022-09-29T16:33:45;16.20;99.90
25937;DHT22;13733;51.178;4.450;2022-09-29T16:36:17;16.20;99.90
25937;DHT22;13733;51.178;4.450;2022-09-29T16:38:45;16.20;99.90
25937;DHT22;13733;51.178;4.450;2022-09-29T16:41:33;16.10;99.90
25937;DHT22;13733;51.178;4.450;2022-09-29T16:44:13;15.90;99.90
25937;DHT22;13733;51.178;4.450;2022-09-29T16:46:45;15.80;99.90
25937;DHT22;13733;51.178;4.450;2022-09-29T16:55:18;15.70;99.90
25937;DHT22;13733;51.178;4.450;2022-09-29T17:00:49;15.40;99.90
25937;DHT22;13733;51.178;4.450;2022-09-29T17:03:15;15.30;99.90
25937;DHT22;13733;51.178;4.450;2022-09-29T17:05:42;15.30;99.90
25937;DHT22;13733;51.178;4.450;2022-09-29T17:08:38;15.20;99.90
25937;DHT22;13733;51.178;4.450;2022-09-29T17:11:06;15.10;99.90
25937;DHT22;13733;51.178;4.450;2022-09-29T17:13:34;15.00;99.90
25937;DHT22;13733;51.178;4.450;2022-09-29T17:16:00;14.90;99.90
25937;DHT22;13733;51.178;4.450;2022-09-29T17:18:26;14.80;99.90
25937;DHT22;13733;51.178;4.450;2022-09-29T17:20:53;14.80;99.90
25937;DHT22;13733;51.178;4.450;2022-09-29T17:23:19;14.70;99.90
25937;DHT22;13733;51.178;4.450;2022-09-29T17:25:46;14.70;99.90
25937;DHT22;13733;51.178;4.450;2022-09-29T17:28:19;14.70;99.90
25937;DHT22;13733;51.178;4.450;2022-09-29T17:30:50;14.50;99.90
25937;DHT22;13733;51.178;4.450;2022-09-29T17:33:17;14.50;99.90
25937;DHT22;13733;51.178;4.450;2022-09-29T17:35:53;14.50;99.90
25937;DHT22;13733;51.178;4.450;2022-09-29T17:38:18;14.30;99.90
25937;DHT22;13733;51.178;4.450;2022-09-29T17:41:00;14.30;99.90
25937;DHT22;13733;51.178;4.450;2022-09-29T17:43:27;14.30;99.90
25937;DHT22;13733;51.178;4.450;2022-09-29T17:45:57;14.20;99.90
25937;DHT22;13733;51.178;4.450;2022-09-29T17:48:27;14.20;99.90
25937;DHT22;13733;51.178;4.450;2022-09-29T17:50:53;14.10;99.90
25937;DHT22;13733;51.178;4.450;2022-09-29T17:53:23;14.00;99.90
25937;DHT22;13733;51.178;4.450;2022-09-29T17:55:52;14.00;99.90
25937;DHT22;13733;51.178;4.450;2022-09-29T17:58:19;14.00;99.90
25937;DHT22;13733;51.178;4.450;2022-09-29T18:00:50;14.00;99.90
25937;DHT22;13733;51.178;4.450;2022-09-29T18:03:18;14.00;99.90
25937;DHT22;13733;51.178;4.450;2022-09-29T18:05:46;13.90;99.90
25937;DHT22;13733;51.178;4.450;2022-09-29T18:08:15;13.90;99.90
25937;DHT22;13733;51.178;4.450;2022-09-29T18:10:44;13.90;99.90
25937;DHT22;13733;51.178;4.450;2022-09-29T18:13:11;13.80;99.90
25937;DHT22;13733;51.178;4.450;2022-09-29T18:15:37;13.70;99.90
25937;DHT22;13733;51.178;4.450;2022-09-29T18:18:05;13.70;99.90
25937;DHT22;13733;51.178;4.450;2022-09-29T18:20:33;13.60;99.90
25937;DHT22;13733;51.178;4.450;2022-09-29T18:23:01;13.50;99.90
25937;DHT22;13733;51.178;4.450;2022-09-29T18:25:29;13.50;99.90
25937;DHT22;13733;51.178;4.450;2022-09-29T18:27:55;13.40;99.90
25937;DHT22;13733;51.178;4.450;2022-09-29T18:30:22;13.40;99.90
25937;DHT22;13733;51.178;4.450;2022-09-29T18:32:51;13.30;99.90
25937;DHT22;13733;51.178;4.450;2022-09-29T18:35:36;13.30;99.90
25937;DHT22;13733;51.178;4.450;2022-09-29T18:38:02;13.20;99.90
25937;DHT22;13733;51.178;4.450;2022-09-29T18:40:29;13.10;99.90
25937;DHT22;13733;51.178;4.450;2022-09-29T18:42:56;13.10;99.90
25937;DHT22;13733;51.178;4.450;2022-09-29T18:45:29;13.10;99.90
25937;DHT22;13733;51.178;4.450;2022-09-29T18:48:00;13.10;99.90
25937;DHT22;13733;51.178;4.450;2022-09-29T18:50:39;13.10;99.90
25937;DHT22;13733;51.178;4.450;2022-09-29T18:53:09;13.00;99.90
25937;DHT22;13733;51.178;4.450;2022-09-29T18:55:35;13.00;99.90
25937;DHT22;13733;51.178;4.450;2022-09-29T18:58:01;13.00;99.90
25937;DHT22;13733;51.178;4.450;2022-09-29T19:00:36;13.00;99.90